Time;durP1;ratioP1;P1;durP2;ratioP2;P2;SDS_P1;SDS_P2;PMS_P1;PMS_P2;Temp;Humidity;BMP_temperature;BMP_pressure;BME280_temperature;BME280_humidity;BME280_pressure;Samples;Min_cycle;Max_cycle;Signal;HPM_P1;HPM_P2
2022/04/20 00:00:39;;;;;;;11.10;5.63;;;7.00;99.90;;;;;;5079943;28;20028;-72
2022/04/20 00:03:05;;;;;;;9.95;5.78;;;7.00;99.90;;;;;;5084454;28;20035;-73
2022/04/20 00:05:33;;;;;;;8.65;5.05;;;6.90;99.90;;;;;;5084905;28;20562;-71
2022/04/20 00:08:02;;;;;;;9.52;5.40;;;6.90;99.90;;;;;;5083925;28;20036;-71
2022/04/20 00:10:30;;;;;;;11.80;5.18;;;6.90;99.90;;;;;;5084364;28;20085;-73
2022/04/20 00:12:56;;;;;;;9.18;5.03;;;6.90;99.90;;;;;;5083589;28;20051;-71
2022/04/20 00:15:22;;;;;;;8.45;5.20;;;6.80;99.90;;;;;;5083893;28;20044;-72
2022/04/20 00:17:48;;;;;;;12.20;5.35;;;6.80;99.90;;;;;;5063265;28;20504;-73
2022/04/20 00:20:14;;;;;;;9.73;5.38;;;6.70;99.90;;;;;;5082554;28;20475;-71
2022/04/20 00:22:39;;;;;;;9.73;5.03;;;6.70;99.90;;;;;;5084071;28;20047;-71
2022/04/20 00:25:05;;;;;;;11.90;5.40;;;6.70;99.90;;;;;;5081330;28;20401;-72
2022/04/20 00:27:38;;;;;;;8.98;5.22;;;6.70;99.90;;;;;;5082784;28;21583;-72
2022/04/20 00:30:05;;;;;;;9.98;5.60;;;6.70;99.90;;;;;;5084182;28;20066;-72
2022/04/20 00:32:31;;;;;;;9.18;4.88;;;6.70;99.90;;;;;;5084238;28;20547;-73
2022/04/20 00:34:57;;;;;;;9.68;5.05;;;6.60;99.90;;;;;;5083905;28;20040;-71
2022/04/20 00:37:23;;;;;;;10.60;5.70;;;6.60;99.90;;;;;;5083202;28;20047;-69
2022/04/20 00:39:49;;;;;;;11.60;5.15;;;6.50;99.90;;;;;;5083334;28;20040;-75
2022/04/20 00:42:14;;;;;;;10.65;5.45;;;6.60;99.90;;;;;;5083720;28;20466;-72
2022/04/20 00:44:41;;;;;;;10.98;5.38;;;6.50;99.90;;;;;;5078423;28;20487;-71
2022/04/20 00:47:07;;;;;;;9.57;5.22;;;6.50;99.90;;;;;;5085327;28;20028;-74
2022/04/20 00:49:35;;;;;;;9.52;5.35;;;6.50;99.90;;;;;;5086392;28;20036;-73
2022/04/20 00:52:02;;;;;;;9.45;4.88;;;6.50;99.90;;;;;;5088293;28;20040;-74
2022/04/20 00:54:28;;;;;;;8.93;5.53;;;6.50;99.90;;;;;;5084701;28;20044;-73
2022/04/20 00:56:53;;;;;;;12.05;5.60;;;6.50;99.90;;;;;;5087630;28;20040;-75
2022/04/20 00:59:25;;;;;;;9.68;5.40;;;6.50;99.90;;;;;;5086412;28;20097;-71
2022/04/20 01:01:51;;;;;;;9.07;5.38;;;6.40;99.90;;;;;;5083775;28;20075;-71
2022/04/20 01:04:17;;;;;;;10.60;5.50;;;6.40;99.90;;;;;;5069343;28;20087;-80
2022/04/20 01:06:44;;;;;;;11.63;5.88;;;6.40;99.90;;;;;;5085089;28;20082;-75
2022/04/20 01:09:10;;;;;;;12.88;5.28;;;6.40;99.90;;;;;;5086548;28;20055;-74
2022/04/20 01:11:35;;;;;;;12.07;5.85;;;6.40;99.90;;;;;;5087545;28;20040;-74
2022/04/20 01:14:01;;;;;;;11.52;6.15;;;6.30;99.90;;;;;;5088473;28;21490;-72
2022/04/20 01:16:27;;;;;;;10.00;5.97;;;6.20;99.90;;;;;;5087187;28;20036;-72
2022/04/20 01:18:53;;;;;;;8.23;5.22;;;6.20;99.90;;;;;;5088348;28;20364;-72
2022/04/20 01:21:19;;;;;;;9.90;5.72;;;6.20;99.90;;;;;;5087683;28;20114;-70
2022/04/20 01:23:44;;;;;;;13.02;5.80;;;6.20;99.90;;;;;;5086000;28;20055;-71
2022/04/20 01:26:11;;;;;;;8.85;5.63;;;6.20;99.90;;;;;;5085174;28;20475;-71
2022/04/20 01:28:38;;;;;;;10.45;5.80;;;6.20;99.90;;;;;;5085295;28;20036;-73
2022/04/20 01:31:04;;;;;;;11.90;5.97;;;6.20;99.90;;;;;;5086211;28;20032;-72
2022/04/20 01:33:30;;;;;;;10.90;6.07;;;6.10;99.90;;;;;;5087275;28;20043;-72
2022/04/20 01:35:56;;;;;;;11.60;5.70;;;6.10;99.90;;;;;;5086658;28;20048;-72
2022/04/20 01:38:21;;;;;;;10.60;5.65;;;6.10;99.90;;;;;;5084690;28;20036;-71
2022/04/20 01:40:47;;;;;;;10.90;5.95;;;6.00;99.90;;;;;;5085622;28;20063;-72
2022/04/20 01:43:12;;;;;;;11.40;6.10;;;6.00;99.90;;;;;;5085626;28;20059;-72
2022/04/20 01:45:38;;;;;;;12.88;6.10;;;6.00;99.90;;;;;;5083972;28;20036;-72
2022/04/20 01:48:04;;;;;;;13.52;5.85;;;5.90;99.90;;;;;;5084797;28;20390;-72
2022/04/20 01:50:29;;;;;;;8.70;5.55;;;5.90;99.90;;;;;;5084020;28;20044;-71
2022/04/20 01:52:55;;;;;;;10.95;6.00;;;5.80;99.90;;;;;;5085557;28;20478;-72
2022/04/20 01:55:21;;;;;;;12.32;6.13;;;5.80;99.90;;;;;;5084573;28;20047;-72
2022/04/20 01:57:46;;;;;;;9.65;5.75;;;5.80;99.90;;;;;;5084898;28;20072;-72
2022/04/20 02:00:13;;;;;;;12.07;6.13;;;5.70;99.90;;;;;;5086414;28;20028;-72
2022/04/20 02:02:38;;;;;;;11.95;5.80;;;5.70;99.90;;;;;;5084034;28;20082;-71
2022/04/20 02:05:10;;;;;;;12.07;6.07;;;5.70;99.90;;;;;;5086027;28;20390;-71
2022/04/20 02:07:36;;;;;;;10.32;5.63;;;5.60;99.90;;;;;;5084871;28;20055;-70
2022/04/20 02:10:04;;;;;;;14.48;5.90;;;5.60;99.90;;;;;;5084795;28;20144;-71
2022/04/20 02:12:30;;;;;;;11.32;5.80;;;5.60;99.90;;;;;;5083329;28;20075;-71
2022/04/20 02:14:56;;;;;;;10.43;5.75;;;5.50;99.90;;;;;;5085705;28;20050;-71
2022/04/20 02:17:21;;;;;;;11.35;6.05;;;5.50;99.90;;;;;;5085489;28;20122;-71
2022/04/20 02:19:47;;;;;;;13.20;5.70;;;5.50;99.90;;;;;;5084719;28;20143;-71
2022/04/20 02:22:13;;;;;;;11.60;6.15;;;5.40;99.90;;;;;;5081641;28;20032;-71
2022/04/20 02:24:39;;;;;;;12.23;5.63;;;5.40;99.90;;;;;;5086194;28;20091;-72
2022/04/20 02:27:05;;;;;;;13.75;6.68;;;5.40;99.90;;;;;;5083368;28;20043;-71
2022/04/20 02:29:30;;;;;;;11.98;6.55;;;5.40;99.90;;;;;;5084694;28;20038;-71
2022/04/20 02:31:56;;;;;;;12.80;6.18;;;5.30;99.90;;;;;;5083035;28;20056;-71
2022/04/20 02:34:22;;;;;;;15.27;5.88;;;5.30;99.90;;;;;;5082248;28;20407;-71
2022/04/20 02:36:48;;;;;;;12.18;6.38;;;5.30;99.90;;;;;;5085518;28;20040;-71
2022/04/20 02:39:14;;;;;;;13.82;6.47;;;5.30;99.90;;;;;;5084767;28;20040;-71
2022/04/20 02:41:41;;;;;;;13.43;7.03;;;5.20;99.90;;;;;;5085828;28;20046;-73
2022/04/20 02:44:07;;;;;;;12.80;6.43;;;5.30;99.90;;;;;;5085070;28;20126;-74
2022/04/20 02:46:34;;;;;;;17.05;7.05;;;5.20;99.90;;;;;;5082416;28;20393;-71
2022/04/20 02:49:00;;;;;;;11.00;6.43;;;5.30;99.90;;;;;;5078334;28;20059;-72
2022/04/20 02:51:26;;;;;;;11.43;6.60;;;5.30;99.90;;;;;;5085417;28;20035;-72
2022/04/20 02:53:51;;;;;;;16.45;6.38;;;5.20;99.90;;;;;;5085070;28;20511;-71
2022/04/20 02:56:17;;;;;;;15.05;5.97;;;5.20;99.90;;;;;;5083250;28;20035;-72
2022/04/20 02:58:43;;;;;;;12.15;6.80;;;5.20;99.90;;;;;;5085832;28;20467;-72
2022/04/20 03:01:08;;;;;;;14.80;6.32;;;5.20;99.90;;;;;;5085641;28;20508;-71
2022/04/20 03:03:34;;;;;;;13.38;6.82;;;5.20;99.90;;;;;;5082432;28;20050;-72
2022/04/20 03:06:00;;;;;;;10.48;6.20;;;5.10;99.90;;;;;;5082774;28;20048;-71
2022/04/20 03:08:26;;;;;;;10.05;5.93;;;5.10;99.90;;;;;;5079525;28;20097;-72
2022/04/20 03:10:52;;;;;;;12.52;6.43;;;5.10;99.90;;;;;;5082957;28;20048;-71
2022/04/20 03:13:18;;;;;;;11.60;5.93;;;5.10;99.90;;;;;;5084448;28;20042;-71
2022/04/20 03:15:45;;;;;;;9.38;5.72;;;5.10;99.90;;;;;;5084118;28;20241;-72
2022/04/20 03:18:10;;;;;;;13.27;7.00;;;5.10;99.90;;;;;;5083120;28;20040;-72
2022/04/20 03:20:36;;;;;;;13.25;7.25;;;5.10;99.90;;;;;;5082999;28;20036;-71
2022/04/20 03:23:02;;;;;;;13.98;6.40;;;5.00;99.90;;;;;;5084445;28;20036;-71
2022/04/20 03:25:28;;;;;;;12.55;7.18;;;5.00;99.90;;;;;;5083409;28;20487;-72
2022/04/20 03:27:53;;;;;;;12.18;6.70;;;5.00;99.90;;;;;;5084708;28;20132;-72
2022/04/20 03:30:19;;;;;;;10.13;6.13;;;5.00;99.90;;;;;;5082171;28;20048;-72
2022/04/20 03:32:45;;;;;;;13.73;6.82;;;5.00;99.90;;;;;;5083566;28;20126;-71
2022/04/20 03:35:10;;;;;;;14.10;6.18;;;5.00;99.90;;;;;;5085179;28;20036;-72
2022/04/20 03:37:37;;;;;;;14.05;6.88;;;5.00;99.90;;;;;;5085005;28;20028;-72
2022/04/20 03:40:08;;;;;;;12.10;6.40;;;5.00;99.90;;;;;;5083728;28;20043;-71
2022/04/20 03:42:34;;;;;;;13.82;6.70;;;5.00;99.90;;;;;;5083529;28;20036;-71
2022/04/20 03:44:59;;;;;;;11.85;6.45;;;4.90;99.90;;;;;;5085236;28;20039;-72
2022/04/20 03:47:25;;;;;;;13.35;6.85;;;4.90;99.90;;;;;;5084827;28;20048;-72
2022/04/20 03:49:51;;;;;;;13.25;6.80;;;4.90;99.90;;;;;;5080757;28;20044;-71
2022/04/20 03:52:16;;;;;;;14.90;7.03;;;4.90;99.90;;;;;;5084782;28;20135;-72
2022/04/20 03:54:42;;;;;;;11.50;6.90;;;4.80;99.90;;;;;;5083105;28;20040;-72
2022/04/20 03:57:07;;;;;;;12.30;6.22;;;4.80;99.90;;;;;;5084334;28;20048;-71
2022/04/20 03:59:37;;;;;;;11.73;5.75;;;4.80;99.90;;;;;;5082811;28;20054;-71
2022/04/20 04:02:04;;;;;;;11.10;6.00;;;4.70;99.90;;;;;;5082442;28;20028;-71
2022/04/20 04:04:30;;;;;;;10.40;5.72;;;4.70;99.90;;;;;;5084433;28;20031;-71
2022/04/20 04:06:55;;;;;;;10.50;6.22;;;4.60;99.90;;;;;;5082416;28;20509;-70
2022/04/20 04:09:21;;;;;;;12.73;6.30;;;4.60;99.90;;;;;;5083494;28;20035;-71
2022/04/20 04:11:46;;;;;;;13.65;6.43;;;4.50;99.90;;;;;;5085612;28;20032;-71
2022/04/20 04:14:12;;;;;;;10.50;6.72;;;4.50;99.90;;;;;;5084208;28;20584;-71
2022/04/20 04:16:37;;;;;;;13.93;6.78;;;4.50;99.90;;;;;;5084670;28;20043;-71
2022/04/20 04:19:04;;;;;;;12.35;6.85;;;4.40;99.90;;;;;;5083898;28;20090;-71
2022/04/20 04:21:31;;;;;;;14.38;6.85;;;4.40;99.90;;;;;;5078484;28;20363;-70
2022/04/20 04:23:57;;;;;;;12.40;6.88;;;4.40;99.90;;;;;;5078337;28;20486;-71
2022/04/20 04:26:22;;;;;;;11.52;6.88;;;4.40;99.90;;;;;;5082848;28;20043;-70
2022/04/20 04:28:48;;;;;;;15.30;7.13;;;4.40;99.90;;;;;;5083232;28;20083;-71
2022/04/20 04:31:13;;;;;;;12.05;6.28;;;4.40;99.90;;;;;;5084269;28;20040;-69
2022/04/20 04:33:39;;;;;;;12.13;6.90;;;4.40;99.90;;;;;;5083113;28;20067;-71
2022/04/20 04:36:04;;;;;;;12.20;6.75;;;4.40;99.90;;;;;;5075801;28;20037;-70
2022/04/20 04:38:30;;;;;;;11.00;6.68;;;4.30;99.90;;;;;;5081606;28;20436;-70
2022/04/20 04:40:55;;;;;;;11.75;6.78;;;4.30;99.90;;;;;;5082775;28;20050;-71
2022/04/20 04:43:21;;;;;;;12.57;6.35;;;4.30;99.90;;;;;;5083489;28;20071;-71
2022/04/20 04:48:36;;;;;;;13.30;7.03;;;4.30;99.90;;;;;;5087826;28;20414;-71
2022/04/20 04:51:09;;;;;;;11.77;6.78;;;4.30;99.90;;;;;;5086824;28;20123;-71
2022/04/20 04:53:35;;;;;;;13.68;6.80;;;4.30;99.90;;;;;;5086999;28;20519;-71
2022/04/20 04:56:01;;;;;;;16.67;7.22;;;4.30;99.90;;;;;;5081437;28;20075;-71
2022/04/20 04:58:27;;;;;;;14.80;7.03;;;4.30;99.90;;;;;;5087291;28;20032;-70
2022/04/20 05:00:53;;;;;;;10.30;6.97;;;4.40;99.90;;;;;;5086940;28;20036;-71
2022/04/20 05:03:19;;;;;;;12.23;6.85;;;4.40;99.90;;;;;;5086904;28;20522;-71
2022/04/20 05:05:45;;;;;;;10.57;6.75;;;4.40;99.90;;;;;;5087971;28;20087;-71
2022/04/20 05:08:11;;;;;;;14.35;7.47;;;4.50;99.90;;;;;;5082253;28;20087;-71
2022/04/20 05:10:37;;;;;;;15.35;6.78;;;4.50;99.90;;;;;;5085827;28;20474;-70
2022/04/20 05:13:06;;;;;;;13.00;7.57;;;4.50;99.90;;;;;;5086133;28;20499;-70
2022/04/20 05:15:32;;;;;;;12.75;7.20;;;4.60;99.90;;;;;;5080387;28;20044;-70
2022/04/20 05:17:58;;;;;;;14.85;7.57;;;4.60;99.90;;;;;;5086337;28;20044;-71
2022/04/20 05:20:24;;;;;;;13.13;7.68;;;4.70;99.90;;;;;;5086839;28;20180;-70
2022/04/20 05:22:50;;;;;;;15.15;7.88;;;4.80;99.90;;;;;;5104291;28;20032;-71
2022/04/20 05:25:16;;;;;;;13.43;7.70;;;4.80;99.90;;;;;;5087754;28;20040;-73
2022/04/20 05:27:42;;;;;;;14.52;7.50;;;4.90;99.90;;;;;;5083022;28;20035;-70
2022/04/20 05:30:11;;;;;;;14.40;7.22;;;5.00;99.90;;;;;;5083333;28;20040;-70
2022/04/20 05:32:36;;;;;;;14.55;7.50;;;5.10;99.90;;;;;;5081225;28;20460;-71
2022/04/20 05:35:02;;;;;;;16.95;7.68;;;5.20;99.90;;;;;;5086701;28;22014;-71
2022/04/20 05:42:57;;;;;;;18.30;8.63;;;5.40;99.90;;;;;;5085046;28;20043;-71
2022/04/20 05:45:23;;;;;;;17.65;8.18;;;5.60;99.90;;;;;;5086958;28;20035;-70
2022/04/20 05:47:48;;;;;;;18.40;8.82;;;5.70;99.90;;;;;;5087046;28;20051;-71
2022/04/20 05:50:14;;;;;;;15.88;8.23;;;5.70;99.90;;;;;;5086203;28;20490;-72
2022/04/20 05:52:40;;;;;;;16.85;8.98;;;5.80;99.90;;;;;;5071018;28;20028;-70
2022/04/20 05:55:06;;;;;;;19.33;8.88;;;5.90;99.90;;;;;;5107279;28;21492;-71
2022/04/20 05:57:33;;;;;;;17.65;8.70;;;6.00;99.90;;;;;;5090790;28;20115;-70
2022/04/20 05:59:59;;;;;;;18.45;9.07;;;6.10;99.90;;;;;;5087790;28;20035;-71
2022/04/20 06:02:24;;;;;;;17.42;8.52;;;6.20;99.90;;;;;;5090846;28;20052;-71
2022/04/20 06:04:50;;;;;;;22.25;9.07;;;6.30;99.90;;;;;;5091351;28;20093;-71
2022/04/20 06:07:16;;;;;;;17.05;8.63;;;6.40;99.90;;;;;;5091333;28;20081;-73
2022/04/20 06:09:42;;;;;;;20.40;8.85;;;6.50;99.90;;;;;;5091541;28;20040;-73
2022/04/20 06:12:07;;;;;;;19.45;8.15;;;6.60;99.90;;;;;;5091909;28;20063;-71
2022/04/20 06:14:33;;;;;;;12.48;7.28;;;6.70;99.90;;;;;;5089722;28;20039;-76
2022/04/20 06:16:59;;;;;;;15.23;7.78;;;6.80;99.90;;;;;;5091170;28;21775;-71
2022/04/20 06:19:25;;;;;;;14.07;7.55;;;6.80;99.90;;;;;;5089828;28;20344;-70
2022/04/20 06:21:50;;;;;;;11.13;6.45;;;6.90;99.90;;;;;;5089577;28;20380;-72
2022/04/20 06:24:16;;;;;;;12.60;6.85;;;7.10;99.90;;;;;;5087677;28;20122;-71
2022/04/20 06:26:42;;;;;;;11.68;6.90;;;7.20;99.90;;;;;;5091901;28;20072;-73
2022/04/20 06:29:07;;;;;;;15.18;6.93;;;7.30;99.90;;;;;;5089421;28;20067;-72
2022/04/20 06:31:34;;;;;;;11.88;7.00;;;7.40;99.90;;;;;;5089633;28;20047;-73
2022/04/20 06:33:59;;;;;;;12.40;6.95;;;7.50;99.90;;;;;;5091032;28;20040;-72
2022/04/20 06:36:26;;;;;;;16.98;6.93;;;7.60;99.90;;;;;;5091288;28;20039;-75
2022/04/20 06:38:52;;;;;;;13.95;7.32;;;7.80;99.90;;;;;;5089824;28;20034;-71
2022/04/20 06:41:18;;;;;;;11.35;6.53;;;7.90;99.90;;;;;;5092132;28;20063;-71
2022/04/20 06:43:44;;;;;;;12.95;7.38;;;8.00;99.90;;;;;;5091898;28;20550;-71
2022/04/20 06:46:10;;;;;;;10.02;6.47;;;8.00;99.90;;;;;;5086972;28;20158;-73
2022/04/20 06:48:36;;;;;;;13.07;6.90;;;8.20;99.90;;;;;;5078679;28;20043;-76
2022/04/20 06:51:02;;;;;;;11.05;6.63;;;8.30;99.90;;;;;;5090453;28;20043;-76
2022/04/20 06:58:31;;;;;;;11.57;7.07;;;8.50;99.90;;;;;;5089173;28;20540;-73
2022/04/20 06:59:13;;;;;;;11.15;6.50;;;8.60;99.90;;;;;;5089083;28;20067;-74
2022/04/20 07:01:39;;;;;;;9.95;6.55;;;8.70;99.90;;;;;;5087796;28;20067;-76
2022/04/20 07:04:05;;;;;;;12.95;6.35;;;8.80;99.90;;;;;;5086049;28;20040;-72
2022/04/20 07:06:31;;;;;;;12.50;6.25;;;8.90;99.90;;;;;;5088697;28;20047;-69
2022/04/20 07:08:57;;;;;;;12.85;6.82;;;9.00;99.90;;;;;;5089982;28;20483;-72
2022/04/20 07:11:23;;;;;;;10.57;6.15;;;9.10;99.90;;;;;;5090572;28;20050;-72
2022/04/20 07:13:50;;;;;;;12.50;6.28;;;9.10;99.90;;;;;;5090628;28;20036;-77
2022/04/20 07:16:15;;;;;;;12.05;6.82;;;9.30;99.90;;;;;;5088682;28;20486;-72
2022/04/20 07:18:41;;;;;;;14.75;6.38;;;9.30;99.90;;;;;;5067390;28;20050;-74
2022/04/20 07:21:06;;;;;;;11.57;6.75;;;9.50;99.90;;;;;;5073164;28;20039;-70
2022/04/20 07:23:32;;;;;;;9.55;5.82;;;9.60;99.90;;;;;;5090170;28;20071;-71
2022/04/20 07:25:57;;;;;;;10.02;6.07;;;9.60;99.90;;;;;;5077227;28;20051;-72
2022/04/20 07:28:23;;;;;;;10.43;6.07;;;9.70;99.90;;;;;;5072092;28;20047;-68
2022/04/20 07:30:48;;;;;;;10.77;5.95;;;9.80;99.90;;;;;;5067465;28;20044;-71
2022/04/20 07:33:15;;;;;;;12.75;6.13;;;9.90;99.90;;;;;;5086908;28;20050;-74
2022/04/20 07:35:44;;;;;;;12.40;5.72;;;9.90;99.90;;;;;;5087904;28;20039;-74
2022/04/20 07:38:09;;;;;;;9.75;5.35;;;10.00;99.90;;;;;;5089755;28;20149;-72
2022/04/20 07:40:35;;;;;;;11.38;5.57;;;10.00;99.90;;;;;;5089188;28;20515;-75
2022/04/20 07:43:00;;;;;;;9.02;5.25;;;10.10;99.90;;;;;;5089918;28;20036;-71
2022/04/20 07:45:26;;;;;;;9.43;5.55;;;10.20;99.90;;;;;;5090186;28;20047;-71
2022/04/20 07:47:56;;;;;;;13.20;5.47;;;10.30;99.90;;;;;;5089974;28;20406;-72
2022/04/20 07:50:23;;;;;;;8.60;5.22;;;10.40;99.90;;;;;;5087741;28;20044;-73
2022/04/20 07:52:55;;;;;;;9.02;5.38;;;10.50;99.90;;;;;;5089793;28;20040;-70
2022/04/20 07:55:27;;;;;;;8.47;4.97;;;10.60;99.90;;;;;;5088067;28;20488;-77
2022/04/20 07:57:55;;;;;;;8.82;4.97;;;10.70;99.90;;;;;;5089619;28;20345;-75
2022/04/20 08:00:22;;;;;;;8.98;4.55;;;10.80;99.90;;;;;;5089078;28;20039;-74
2022/04/20 08:02:47;;;;;;;7.03;4.45;;;10.90;99.90;;;;;;5088517;28;20059;-74
2022/04/20 08:05:15;;;;;;;8.50;4.53;;;10.90;99.90;;;;;;5089926;28;20032;-71
2022/04/20 08:07:43;;;;;;;10.48;4.70;;;11.00;99.90;;;;;;5089269;28;20047;-69
2022/04/20 08:10:10;;;;;;;7.30;4.15;;;11.10;99.90;;;;;;5088484;28;20063;-72
2022/04/20 08:12:37;;;;;;;8.88;4.10;;;11.10;99.90;;;;;;5089386;28;20055;-71
2022/04/20 08:15:04;;;;;;;6.13;3.80;;;11.20;99.90;;;;;;5089862;28;20081;-74
2022/04/20 08:17:30;;;;;;;6.38;4.18;;;11.20;99.90;;;;;;5089314;28;20093;-73
2022/04/20 08:19:56;;;;;;;7.50;3.70;;;11.30;99.70;;;;;;5087661;28;20368;-71
2022/04/20 08:22:22;;;;;;;9.50;4.30;;;11.40;99.90;;;;;;5088078;28;20048;-75
2022/04/20 08:24:48;;;;;;;8.52;4.10;;;11.40;99.90;;;;;;5090669;28;20051;-74
2022/04/20 08:27:14;;;;;;;7.38;4.00;;;11.50;99.90;;;;;;5089392;28;20032;-72
2022/04/20 08:29:40;;;;;;;7.15;4.10;;;11.60;99.90;;;;;;5087875;28;20047;-76
2022/04/20 08:32:06;;;;;;;13.25;4.10;;;11.60;98.60;;;;;;5089385;28;20028;-70
2022/04/20 08:34:32;;;;;;;8.40;4.40;;;11.70;98.90;;;;;;5089777;28;20406;-74
2022/04/20 08:36:57;;;;;;;8.02;3.92;;;11.70;99.90;;;;;;5089833;28;20040;-71
2022/04/20 08:39:23;;;;;;;6.93;4.60;;;11.80;99.90;;;;;;5087368;28;20040;-76
2022/04/20 08:41:49;;;;;;;7.63;3.90;;;12.00;99.90;;;;;;5089381;28;20509;-69
2022/04/20 08:44:24;;;;;;;8.63;4.30;;;12.10;99.40;;;;;;5089727;28;20051;-75
2022/04/20 08:46:53;;;;;;;7.45;4.57;;;12.10;98.90;;;;;;5089617;28;20044;-77
2022/04/20 08:49:18;;;;;;;7.93;4.40;;;12.20;99.60;;;;;;5089119;28;20067;-75
2022/04/20 08:54:28;;;;;;;7.63;4.18;;;12.40;96.40;;;;;;5079802;28;20080;-75
2022/04/20 08:59:40;;;;;;;5.07;3.83;;;12.50;96.10;;;;;;5087823;28;20536;-73
2022/04/20 09:02:06;;;;;;;8.80;4.07;;;12.50;91.80;;;;;;5088002;28;20184;-71
2022/04/20 09:04:32;;;;;;;7.40;3.70;;;12.60;97.60;;;;;;5089663;28;20127;-72
2022/04/20 09:06:57;;;;;;;6.78;3.90;;;12.60;97.50;;;;;;5090122;28;20147;-72
2022/04/20 09:09:29;;;;;;;6.95;4.25;;;12.70;95.70;;;;;;5091932;28;20402;-76
2022/04/20 09:11:57;;;;;;;6.72;4.15;;;12.80;98.70;;;;;;5092644;28;20044;-73
2022/04/20 09:14:24;;;;;;;6.50;3.88;;;12.80;95.00;;;;;;5091911;28;20043;-77
2022/04/20 09:16:55;;;;;;;7.38;3.90;;;12.90;92.90;;;;;;5078473;28;20067;-74
2022/04/20 09:19:25;;;;;;;6.53;3.72;;;12.90;93.20;;;;;;5079139;28;20031;-77
2022/04/20 09:21:51;;;;;;;7.53;3.33;;;13.00;89.30;;;;;;5088097;28;20508;-80
2022/04/20 09:24:17;;;;;;;6.30;3.80;;;13.00;90.80;;;;;;5092404;28;20051;-77
2022/04/20 09:26:51;;;;;;;8.35;4.30;;;13.10;91.10;;;;;;5076236;28;20044;-74
2022/04/20 09:29:17;;;;;;;8.10;3.60;;;13.10;92.80;;;;;;5092239;28;20043;-77
2022/04/20 09:31:49;;;;;;;7.18;3.75;;;13.20;86.60;;;;;;5093409;28;20555;-74
2022/04/20 09:34:34;;;;;;;;;;;13.30;92.00;;;;;;5088271;28;20249;-79
2022/04/20 09:37:24;;;;;;;6.00;3.50;;;13.40;90.40;;;;;;5072914;28;20302;-74
2022/04/20 09:39:50;;;;;;;7.32;3.10;;;13.50;93.00;;;;;;5073010;28;20036;-79
2022/04/20 09:42:16;;;;;;;4.53;3.38;;;13.50;77.80;;;;;;5075499;28;20502;-75
2022/04/20 09:44:53;;;;;;;7.07;3.25;;;13.70;90.80;;;;;;5093727;28;20115;-74
2022/04/20 09:50:23;;;;;;;4.18;2.97;;;13.90;83.70;;;;;;5072157;28;20463;-82
2022/04/20 09:52:52;;;;;;;5.70;3.05;;;14.00;83.70;;;;;;5072526;28;20162;-75
2022/04/20 09:55:30;;;;;;;7.38;2.67;;;14.10;82.20;;;;;;5075012;28;20066;-72
2022/04/20 09:58:09;;;;;;;6.07;3.10;;;14.10;74.10;;;;;;5091623;28;20118;-71
2022/04/20 10:00:45;;;;;;;5.53;2.90;;;14.10;63.50;;;;;;5072376;28;20491;-78
2022/04/20 10:03:11;;;;;;;5.95;3.22;;;14.20;67.50;;;;;;5072564;28;20041;-75
2022/04/20 10:05:37;;;;;;;8.10;3.03;;;14.10;62.20;;;;;;5079603;28;20281;-77
2022/04/20 10:08:05;;;;;;;4.63;2.92;;;14.20;67.50;;;;;;5092282;28;20039;-78
2022/04/20 10:10:32;;;;;;;5.72;3.00;;;14.20;61.20;;;;;;5092985;28;20048;-79
2022/04/20 10:12:58;;;;;;;5.90;3.30;;;14.10;61.70;;;;;;5076241;28;20566;-78
2022/04/20 10:18:18;;;;;;;6.10;2.67;;;14.20;61.30;;;;;;5093594;28;20097;-74
2022/04/20 10:20:47;;;;;;;3.97;2.40;;;14.30;62.10;;;;;;5092887;28;20050;-79
2022/04/20 10:23:16;;;;;;;4.57;2.90;;;14.40;60.60;;;;;;5094518;28;20495;-78
2022/04/20 10:25:43;;;;;;;3.72;2.50;;;14.50;62.60;;;;;;5092284;28;20044;-73
2022/04/20 10:28:46;;;;;;;5.80;2.72;;;14.50;57.80;;;;;;5093942;28;20646;-77
2022/04/20 10:31:39;;;;;;;9.25;2.80;;;14.60;60.90;;;;;;5094464;28;20183;-79
2022/04/20 10:34:06;;;;;;;7.10;3.03;;;14.70;64.00;;;;;;5072409;28;20419;-73
2022/04/20 10:36:33;;;;;;;5.10;3.13;;;14.80;64.70;;;;;;5084589;28;20231;-74
2022/04/20 10:39:33;;;;;;;8.43;2.95;;;14.90;64.40;;;;;;5091147;28;20043;-75
2022/04/20 10:42:11;;;;;;;5.07;3.13;;;15.00;61.10;;;;;;5073047;28;20094;-79
2022/04/20 10:44:51;;;;;;;8.30;3.25;;;15.10;58.60;;;;;;5089456;28;20085;-79
2022/04/20 10:47:26;;;;;;;4.97;3.10;;;15.10;62.90;;;;;;5080584;28;20123;-79
2022/04/20 10:49:53;;;;;;;5.47;3.28;;;15.10;60.80;;;;;;5071667;28;20051;-81
2022/04/20 10:52:36;;;;;;;5.22;3.08;;;15.20;66.00;;;;;;5071522;28;20044;-76
2022/04/20 10:55:04;;;;;;;5.82;3.78;;;15.30;62.80;;;;;;5072063;28;20113;-80
2022/04/20 10:57:34;;;;;;;5.60;3.20;;;15.30;58.70;;;;;;5075718;28;20036;-75
2022/04/20 11:00:21;;;;;;;5.70;3.00;;;15.40;60.30;;;;;;5090322;28;20040;-79
2022/04/20 11:02:50;;;;;;;4.63;3.20;;;15.40;59.90;;;;;;5091646;28;20047;-80
2022/04/20 11:05:20;;;;;;;4.75;3.15;;;15.50;59.20;;;;;;5091605;28;20040;-80
2022/04/20 11:08:05;;;;;;;9.00;3.60;;;15.50;60.30;;;;;;5092373;28;20165;-80
2022/04/20 11:10:31;;;;;;;6.13;3.60;;;15.60;58.80;;;;;;5093808;28;20047;-80
2022/04/20 11:19:03;;;;;;;4.47;3.40;;;15.50;57.40;;;;;;5088894;28;20109;-75
2022/04/20 11:21:29;;;;;;;6.40;3.70;;;15.60;61.70;;;;;;5111026;28;20032;-77
2022/04/20 11:24:09;;;;;;;4.63;3.70;;;15.60;62.50;;;;;;5095412;28;20097;-79
2022/04/20 11:26:39;;;;;;;9.18;4.10;;;15.70;60.70;;;;;;5093403;28;20040;-79
2022/04/20 11:29:11;;;;;;;6.28;3.80;;;15.70;61.10;;;;;;5075633;28;20040;-83
2022/04/20 11:31:43;;;;;;;8.70;3.90;;;15.80;61.00;;;;;;5093983;28;20047;-81
2022/04/20 11:34:09;;;;;;;5.07;3.45;;;15.80;62.90;;;;;;5092774;28;20402;-79
2022/04/20 11:36:42;;;;;;;7.95;3.90;;;15.90;60.00;;;;;;5090800;28;20128;-73
2022/04/20 11:39:09;;;;;;;6.50;3.92;;;15.80;59.40;;;;;;5090974;28;20123;-80
2022/04/20 11:41:35;;;;;;;7.45;4.20;;;15.80;58.70;;;;;;5089575;28;20043;-81
2022/04/20 11:44:02;;;;;;;5.25;3.80;;;15.80;58.90;;;;;;5089813;28;20036;-78
2022/04/20 11:46:27;;;;;;;9.55;4.00;;;15.80;59.20;;;;;;5089945;28;20051;-79
2022/04/20 11:48:55;;;;;;;5.32;3.92;;;15.90;59.00;;;;;;5086816;28;20044;-80
2022/04/20 11:51:27;;;;;;;8.38;4.20;;;15.90;59.90;;;;;;5076368;28;20075;-82
2022/04/20 11:53:53;;;;;;;5.17;3.70;;;15.90;59.10;;;;;;5094554;28;20043;-77
2022/04/20 11:56:45;;;;;;;7.38;3.72;;;16.00;61.00;;;;;;5082588;28;20417;-77
2022/04/20 11:59:11;;;;;;;10.68;3.70;;;16.00;57.90;;;;;;5080443;28;20036;-79
2022/04/20 12:01:38;;;;;;;8.15;3.63;;;16.00;58.10;;;;;;5073877;28;20043;-81
2022/04/20 12:04:14;;;;;;;5.53;3.47;;;16.10;62.50;;;;;;5090603;28;20047;-75
2022/04/20 12:06:45;;;;;;;6.53;3.72;;;16.20;63.80;;;;;;5068666;28;20052;-79
2022/04/20 12:09:10;;;;;;;7.25;3.60;;;16.20;57.90;;;;;;5074677;28;20043;-79
2022/04/20 12:11:36;;;;;;;6.32;3.63;;;16.30;61.10;;;;;;5072574;28;20044;-76
2022/04/20 12:14:03;;;;;;;5.88;3.45;;;16.40;60.10;;;;;;5070960;28;20399;-80
2022/04/20 12:16:33;;;;;;;4.75;3.10;;;16.60;62.80;;;;;;5083865;28;20055;-80
2022/04/20 12:18:59;;;;;;;7.03;3.75;;;16.60;58.00;;;;;;5084113;28;20038;-74
2022/04/20 12:21:40;;;;;;;5.05;3.28;;;16.60;59.40;;;;;;5091069;28;20036;-79
2022/04/20 12:24:26;;;;;;;4.63;3.30;;;16.70;57.90;;;;;;5091131;28;20032;-75
2022/04/20 12:26:53;;;;;;;5.65;3.22;;;16.80;58.00;;;;;;5091892;28;20062;-80
2022/04/20 12:29:21;;;;;;;6.32;2.88;;;16.80;57.10;;;;;;5082530;28;20075;-77
2022/04/20 12:31:51;;;;;;;5.45;2.90;;;16.80;55.70;;;;;;5073648;28;20044;-77
2022/04/20 12:34:19;;;;;;;5.70;2.70;;;16.80;57.10;;;;;;5075110;28;20060;-78
2022/04/20 12:36:58;;;;;;;6.20;3.42;;;16.80;56.30;;;;;;5091217;28;20060;-79
2022/04/20 12:39:32;;;;;;;3.13;2.83;;;16.80;52.90;;;;;;5086416;28;20036;-79
2022/04/20 12:42:05;;;;;;;6.68;3.00;;;16.80;55.10;;;;;;5087093;28;20277;-80
2022/04/20 12:46:59;;;;;;;3.90;2.78;;;16.90;54.90;;;;;;5096440;28;20052;-77
2022/04/20 12:49:27;;;;;;;4.82;2.75;;;16.90;53.00;;;;;;5078742;28;20063;-78
2022/04/20 12:51:53;;;;;;;6.20;2.30;;;16.90;53.00;;;;;;5096713;28;20040;-73
2022/04/20 12:54:23;;;;;;;4.22;2.40;;;16.80;52.90;;;;;;5096181;28;20040;-76
2022/04/20 13:02:18;;;;;;;4.85;2.20;;;16.90;51.10;;;;;;5096706;28;20453;-76
2022/04/20 13:04:48;;;;;;;3.10;2.20;;;17.00;51.40;;;;;;5096457;28;20131;-78
2022/04/20 13:07:13;;;;;;;4.60;2.40;;;17.00;51.80;;;;;;5097412;28;20533;-75
2022/04/20 13:09:39;;;;;;;3.22;2.20;;;17.00;50.60;;;;;;5096813;28;20536;-80
2022/04/20 13:12:04;;;;;;;4.18;2.30;;;17.00;49.30;;;;;;5081670;28;20052;-81
2022/04/20 13:14:31;;;;;;;6.30;2.70;;;17.10;51.30;;;;;;5075565;28;20403;-78
2022/04/20 13:16:57;;;;;;;3.28;2.20;;;17.20;50.60;;;;;;5075951;28;20041;-78
2022/04/20 13:19:22;;;;;;;4.13;2.30;;;17.20;48.80;;;;;;5073503;28;20044;-72
2022/04/20 13:21:48;;;;;;;4.50;2.40;;;17.20;51.00;;;;;;5075311;28;20043;-77
2022/04/20 13:27:53;;;;;;;4.38;2.17;;;17.30;50.10;;;;;;5077139;28;20044;-76
2022/04/20 13:29:44;;;;;;;3.40;2.20;;;17.50;52.00;;;;;;5093146;28;20094;-78